Time;durP1;ratioP1;P1;durP2;ratioP2;P2;SDS_P1;SDS_P2;PMS_P1;PMS_P2;Temp;Humidity;BMP_temperature;BMP_pressure;BME280_temperature;BME280_humidity;BME280_pressure;Samples;Min_cycle;Max_cycle;Signal;HPM_P1;HPM_P2
2022/08/14 00:02:26;;;;;;;10.30;4.60;;;;;18.30;96907.80;;;;110930;1251;41614;-67
2022/08/14 00:04:59;;;;;;;8.90;3.80;;;;;18.20;96900.60;;;;111022;1248;40761;-66
2022/08/14 00:07:29;;;;;;;9.70;4.00;;;;;18.20;96906.80;;;;110809;1248;41152;-66
2022/08/14 00:09:59;;;;;;;11.80;4.30;;;;;18.28;96903.00;;;;110680;1251;41148;-67
2022/08/14 00:12:52;;;;;;;9.50;4.30;;;;;18.30;96894.00;;;;110867;1250;41619;-66
2022/08/14 00:15:29;;;;;;;9.80;3.60;;;;;18.30;96888.80;;;;110978;1250;41179;-67
2022/08/14 00:18:18;;;;;;;8.90;3.50;;;;;18.30;96884.60;;;;110869;1250;42025;-67
2022/08/14 00:21:08;;;;;;;10.50;3.70;;;;;18.24;96882.20;;;;110775;1250;41151;-66
2022/08/14 00:23:39;;;;;;;9.70;4.10;;;;;18.20;96880.40;;;;110745;1249;41321;-66
2022/08/14 00:26:08;;;;;;;9.10;3.80;;;;;18.20;96875.20;;;;110613;1251;43215;-66
2022/08/14 00:28:50;;;;;;;8.40;3.10;;;;;18.20;96873.60;;;;110674;1250;41564;-66
2022/08/14 00:31:20;;;;;;;;;;;;;18.10;96870.60;;;;110656;1250;41276;-66
2022/08/14 00:34:00;;;;;;;7.30;3.00;;;;;18.10;96867.20;;;;110804;1249;41897;-66
2022/08/14 00:36:50;;;;;;;7.60;3.00;;;;;18.06;96863.80;;;;110898;1250;41860;-66
2022/08/14 00:39:20;;;;;;;7.30;2.80;;;;;18.00;96862.60;;;;111097;1247;41164;-66
2022/08/14 00:41:50;;;;;;;7.70;3.60;;;;;18.00;96857.00;;;;110672;1250;41187;-66
2022/08/14 00:44:19;;;;;;;11.20;5.40;;;;;17.90;96855.60;;;;110716;1247;41161;-66
2022/08/14 00:47:07;;;;;;;9.90;5.00;;;;;17.80;96859.80;;;;111017;1248;42049;-65
2022/08/14 00:49:38;;;;;;;11.20;5.60;;;;;17.70;96861.20;;;;111049;1248;41247;-66
2022/08/14 00:52:13;;;;;;;11.00;5.00;;;;;17.70;96857.80;;;;111081;1247;41255;-66
2022/08/14 00:54:55;;;;;;;9.40;4.10;;;;;17.70;96856.00;;;;111029;1250;41243;-67
2022/08/14 00:57:27;;;;;;;;;;;;;17.70;96856.20;;;;110703;1250;41172;-66
2022/08/14 00:59:57;;;;;;;8.50;3.70;;;;;17.70;96855.00;;;;110634;1251;41500;-66
2022/08/14 01:02:28;;;;;;;8.70;3.70;;;;;17.62;96854.60;;;;110836;1249;41748;-66
2022/08/14 01:05:01;;;;;;;11.70;4.20;;;;;17.60;96855.00;;;;110681;1248;41614;-66
2022/08/14 01:07:31;;;;;;;9.10;4.50;;;;;17.60;96857.00;;;;110931;1250;41533;-66
2022/08/14 01:10:06;;;;;;;10.10;4.50;;;;;17.60;96863.80;;;;110830;1248;41238;-65
2022/08/14 01:12:40;;;;;;;10.80;4.50;;;;;17.50;96862.60;;;;110868;1250;41131;-66
2022/08/14 01:15:11;;;;;;;8.50;3.80;;;;;17.46;96853.60;;;;110722;1250;41602;-66
2022/08/14 01:23:18;;;;;;;8.40;3.60;;;;;17.42;96862.20;;;;110588;1251;41271;-66
2022/08/14 01:25:50;;;;;;;8.00;3.40;;;;;17.46;96863.20;;;;110668;1250;41156;-66
2022/08/14 01:28:25;;;;;;;8.40;3.90;;;;;17.50;96865.60;;;;110755;1250;41190;-67
2022/08/14 01:31:17;;;;;;;9.90;3.30;;;;;17.50;96867.00;;;;110845;1249;41891;-67
2022/08/14 01:33:49;;;;;;;8.80;3.80;;;;;17.50;96872.60;;;;110591;1251;41164;-66
2022/08/14 01:36:36;;;;;;;10.60;4.40;;;;;17.50;96874.40;;;;110641;1250;41156;-66
2022/08/14 01:39:16;;;;;;;10.30;4.60;;;;;17.30;96875.20;;;;110790;1251;42225;-67
2022/08/14 01:41:59;;;;;;;10.40;4.60;;;;;17.20;96875.00;;;;111015;1249;41250;-66
2022/08/14 01:44:30;;;;;;;9.30;4.30;;;;;17.20;96872.20;;;;111048;1249;42851;-66
2022/08/14 01:47:11;;;;;;;10.60;3.90;;;;;17.20;96871.80;;;;110970;1249;42088;-66
2022/08/14 01:49:50;;;;;;;8.70;3.20;;;;;17.20;96867.20;;;;110925;1248;41659;-66
2022/08/14 01:52:35;;;;;;;8.40;3.20;;;;;17.20;96863.00;;;;110710;1250;41256;-65
2022/08/14 01:55:30;;;;;;;7.20;2.90;;;;;17.20;96866.20;;;;110725;1251;42281;-65
2022/08/14 01:58:02;;;;;;;7.80;3.10;;;;;17.20;96868.40;;;;110600;1251;41716;-65
2022/08/14 02:00:52;;;;;;;7.40;3.10;;;;;17.20;96864.40;;;;110700;1250;41270;-66
2022/08/14 02:03:27;;;;;;;8.10;2.90;;;;;17.20;96858.40;;;;110704;1250;41254;-66
2022/08/14 02:05:59;;;;;;;8.20;3.30;;;;;17.20;96854.00;;;;110849;1250;41620;-66
2022/08/14 02:08:36;;;;;;;8.00;3.40;;;;;17.20;96855.00;;;;110655;1250;41154;-66
2022/08/14 02:14:10;;;;;;;8.60;3.80;;;;;17.20;96857.00;;;;110815;1248;41638;-67
2022/08/14 02:16:45;;;;;;;9.60;4.50;;;;;17.20;96858.40;;;;111047;1247;41316;-67
2022/08/14 02:19:16;;;;;;;8.80;3.60;;;;;17.20;96860.20;;;;111000;1250;42550;-67
2022/08/14 02:21:53;;;;;;;8.20;3.40;;;;;17.20;96866.80;;;;110993;1250;41267;-66
2022/08/14 02:24:24;;;;;;;9.20;3.90;;;;;17.18;96862.60;;;;110804;1250;41958;-64
2022/08/14 02:27:10;;;;;;;7.70;3.20;;;;;17.10;96859.80;;;;110902;1250;41272;-65
2022/08/14 02:29:59;;;;;;;7.80;3.10;;;;;17.10;96857.60;;;;110681;1250;41719;-65
2022/08/14 02:32:33;;;;;;;;;;;;;17.10;96862.20;;;;110676;1250;41268;-66
2022/08/14 02:35:10;;;;;;;7.30;3.10;;;;;17.02;96863.20;;;;110628;1250;41644;-65
2022/08/14 02:37:40;;;;;;;7.70;3.20;;;;;17.00;96862.00;;;;110709;1250;41466;-66
2022/08/14 02:40:18;;;;;;;7.90;3.00;;;;;17.00;96865.60;;;;110624;1250;41707;-67
2022/08/14 02:42:48;;;;;;;7.20;2.80;;;;;17.00;96865.40;;;;110814;1248;41588;-66
2022/08/14 02:45:24;;;;;;;8.20;3.30;;;;;17.00;96865.00;;;;110739;1250;42136;-67
2022/08/14 02:48:05;;;;;;;7.10;3.00;;;;;17.00;96867.80;;;;110775;1249;41161;-66
2022/08/14 02:50:40;;;;;;;7.90;3.40;;;;;17.00;96868.00;;;;110737;1249;41163;-65
2022/08/14 02:53:11;;;;;;;8.90;4.20;;;;;17.00;96872.60;;;;110866;1249;42352;-65
2022/08/14 02:55:42;;;;;;;11.90;4.50;;;;;16.92;96870.20;;;;110653;1250;42327;-66
2022/08/14 02:58:12;;;;;;;9.80;4.10;;;;;16.88;96873.60;;;;110707;1248;41335;-66
2022/08/14 03:00:50;;;;;;;7.70;3.20;;;;;16.80;96877.40;;;;110767;1251;41407;-65
2022/08/14 03:03:22;;;;;;;8.80;3.10;;;;;16.80;96879.40;;;;110826;1249;41260;-64
2022/08/14 03:05:52;;;;;;;7.70;3.20;;;;;16.80;96884.40;;;;110661;1250;41148;-66
2022/08/14 03:08:22;;;;;;;10.60;4.70;;;;;16.80;96884.20;;;;110699;1250;41184;-66
2022/08/14 03:10:53;;;;;;;10.00;4.50;;;;;16.70;96887.20;;;;110730;1249;41442;-66
2022/08/14 03:13:23;;;;;;;11.10;4.50;;;;;16.70;96881.00;;;;110777;1249;41144;-68
2022/08/14 03:15:54;;;;;;;14.80;4.40;;;;;16.64;96883.60;;;;110861;1248;41141;-65
2022/08/14 03:18:27;;;;;;;8.80;3.50;;;;;16.64;96887.60;;;;110846;1250;41240;-65
2022/08/14 03:21:04;;;;;;;7.90;3.00;;;;;16.68;96880.20;;;;111062;1248;41993;-65
2022/08/14 03:23:35;;;;;;;8.00;3.10;;;;;16.70;96879.80;;;;110700;1247;41010;-66
2022/08/14 03:26:08;;;;;;;8.50;3.50;;;;;16.70;96879.60;;;;110662;1251;41314;-66
2022/08/14 03:28:42;;;;;;;10.10;4.20;;;;;16.70;96877.40;;;;110659;1249;41253;-66
2022/08/14 03:31:13;;;;;;;9.50;4.40;;;;;16.80;96880.60;;;;110682;1248;41259;-65
2022/08/14 03:33:43;;;;;;;8.40;3.60;;;;;16.80;96882.20;;;;110690;1251;41262;-65
2022/08/14 03:36:15;;;;;;;8.90;3.30;;;;;16.80;96879.60;;;;110790;1247;41258;-65
2022/08/14 03:39:06;;;;;;;9.10;3.90;;;;;16.80;96881.80;;;;110855;1250;41140;-66
2022/08/14 03:41:44;;;;;;;10.60;4.10;;;;;16.86;96883.80;;;;110783;1250;41155;-65
2022/08/14 03:44:14;;;;;;;7.60;3.30;;;;;16.88;96882.40;;;;110832;1250;41636;-66
2022/08/14 03:47:05;;;;;;;7.50;3.30;;;;;16.90;96885.60;;;;110940;1250;41636;-67
2022/08/14 03:49:39;;;;;;;8.20;3.20;;;;;17.00;96882.80;;;;111000;1247;41617;-65
2022/08/14 03:52:12;;;;;;;8.80;3.90;;;;;17.00;96880.00;;;;110891;1250;41496;-65
2022/08/14 03:54:57;;;;;;;10.00;4.40;;;;;17.10;96879.00;;;;110880;1250;41675;-65
2022/08/14 03:57:31;;;;;;;9.20;4.30;;;;;17.20;96874.20;;;;110794;1248;41144;-64
2022/08/14 04:00:09;;;;;;;9.30;4.00;;;;;17.20;96874.80;;;;111034;1249;42040;-65
2022/08/14 04:02:42;;;;;;;8.00;3.30;;;;;17.30;96876.20;;;;110786;1248;41949;-66
2022/08/14 04:05:15;;;;;;;8.20;3.80;;;;;17.40;96873.60;;;;110640;1248;41604;-65
2022/08/14 04:07:45;;;;;;;7.80;3.50;;;;;17.44;96877.80;;;;110769;1251;41253;-65
2022/08/14 04:10:17;;;;;;;6.70;2.90;;;;;17.56;96880.40;;;;110927;1250;41187;-66
2022/08/14 04:12:58;;;;;;;9.00;3.90;;;;;17.68;96877.80;;;;110786;1248;42203;-66
2022/08/14 04:15:32;;;;;;;12.10;4.90;;;;;17.70;96854.00;;;;111011;1250;42151;-66
2022/08/14 04:18:22;;;;;;;10.00;4.50;;;;;17.80;96875.60;;;;110875;1248;41670;-66
2022/08/14 04:20:51;;;;;;;11.80;4.90;;;;;17.80;96876.00;;;;110751;1251;42846;-66
2022/08/14 04:23:23;;;;;;;10.50;4.40;;;;;18.00;96849.40;;;;110743;1248;41161;-66
2022/08/14 04:26:04;;;;;;;10.60;4.60;;;;;18.50;96857.60;;;;110757;1249;41907;-65
2022/08/14 04:28:38;;;;;;;10.40;4.40;;;;;18.70;96856.20;;;;111029;1249;42026;-66
2022/08/14 04:31:27;;;;;;;9.50;3.90;;;;;19.00;96849.60;;;;110795;1250;41261;-66
2022/08/14 04:34:17;;;;;;;10.40;3.70;;;;;19.24;96862.60;;;;110955;1248;41135;-66
2022/08/14 04:45:35;;;;;;;10.50;3.80;;;;;21.38;96843.80;;;;110855;1250;41145;-66
2022/08/14 04:48:13;;;;;;;8.50;3.80;;;;;21.90;96837.40;;;;110667;1249;41277;-65
2022/08/14 04:51:04;;;;;;;11.90;3.70;;;;;22.50;96827.60;;;;110984;1247;41620;-66
2022/08/14 04:53:35;;;;;;;8.60;3.60;;;;;23.18;96824.40;;;;109853;1249;1504006;-65
2022/08/14 04:56:11;;;;;;;10.00;4.70;;;;;23.80;96828.20;;;;111040;1247;41136;-65
2022/08/14 04:58:59;;;;;;;;;;;;;24.14;96827.00;;;;111049;1247;41174;-65
2022/08/14 05:01:29;;;;;;;10.60;5.00;;;;;24.52;96820.20;;;;111054;1247;41612;-65
2022/08/14 05:04:01;;;;;;;10.10;4.50;;;;;24.98;96819.60;;;;111022;1249;41611;-64
2022/08/14 05:06:30;;;;;;;9.60;4.50;;;;;25.40;96814.80;;;;110789;1250;41494;-64
2022/08/14 05:09:03;;;;;;;9.20;4.10;;;;;25.90;96815.00;;;;110671;1249;41144;-66
2022/08/14 05:11:34;;;;;;;9.90;4.30;;;;;26.30;96821.60;;;;110714;1249;41275;-65
2022/08/14 05:14:04;;;;;;;10.60;4.00;;;;;26.52;96826.80;;;;110983;1250;41186;-65
2022/08/14 05:16:45;;;;;;;8.50;3.50;;;;;26.64;96828.40;;;;110980;1249;41142;-65
2022/08/14 05:19:16;;;;;;;8.50;3.80;;;;;26.80;96814.20;;;;110768;1249;41266;-66
2022/08/14 05:22:00;;;;;;;8.40;3.60;;;;;27.34;96819.80;;;;111125;1249;41815;-65
2022/08/14 05:24:50;;;;;;;10.50;4.30;;;;;27.90;96821.00;;;;110700;1248;41315;-65
2022/08/14 05:27:19;;;;;;;8.70;3.60;;;;;28.08;96817.40;;;;110897;1248;41729;-65
2022/08/14 05:29:54;;;;;;;8.50;3.70;;;;;27.84;96819.60;;;;110774;1250;41290;-66
2022/08/14 05:32:27;;;;;;;11.70;3.80;;;;;27.60;96822.60;;;;110943;1250;42112;-66
2022/08/14 05:35:03;;;;;;;8.50;3.50;;;;;27.70;96821.80;;;;110749;1249;41939;-66
2022/08/14 05:37:39;;;;;;;8.40;4.00;;;;;28.10;96821.40;;;;110753;1250;41994;-67
2022/08/14 05:40:09;;;;;;;10.80;4.80;;;;;28.28;96818.40;;;;110888;1249;41275;-65
2022/08/14 05:42:38;;;;;;;9.50;3.90;;;;;27.70;96820.00;;;;110974;1249;41172;-66
2022/08/14 05:45:08;;;;;;;10.00;4.60;;;;;27.10;96821.20;;;;110884;1249;41286;-67
2022/08/14 05:47:47;;;;;;;8.00;3.40;;;;;26.70;96823.20;;;;110961;1250;41252;-67
2022/08/14 05:50:20;;;;;;;9.50;4.10;;;;;26.94;96820.40;;;;110845;1250;41239;-66
2022/08/14 05:52:49;;;;;;;8.90;3.80;;;;;27.50;96819.20;;;;110730;1250;41618;-66
2022/08/14 05:55:20;;;;;;;9.00;3.90;;;;;27.70;96813.20;;;;110873;1250;41939;-67
2022/08/14 05:57:59;;;;;;;9.70;4.20;;;;;27.86;96808.20;;;;111043;1249;41341;-65
2022/08/14 06:00:31;;;;;;;9.00;4.00;;;;;27.82;96807.40;;;;111169;1247;41172;-66
2022/08/14 06:03:08;;;;;;;8.60;4.20;;;;;27.80;96807.00;;;;110789;1250;41205;-68
2022/08/14 06:05:38;;;;;;;9.70;4.40;;;;;27.90;96809.60;;;;110713;1248;41537;-67
2022/08/14 06:08:18;;;;;;;10.60;4.40;;;;;27.90;96811.80;;;;110988;1249;41662;-67
2022/08/14 06:11:02;;;;;;;8.60;3.90;;;;;28.02;96812.00;;;;110824;1247;41784;-65
2022/08/14 06:13:32;;;;;;;8.70;3.60;;;;;28.30;96814.80;;;;111307;1248;41148;-66
2022/08/14 06:16:23;;;;;;;8.30;3.40;;;;;28.60;96826.00;;;;110601;1250;42188;-66
2022/08/14 06:18:52;;;;;;;9.40;3.80;;;;;28.86;96824.80;;;;110997;1247;42266;-66
2022/08/14 06:21:21;;;;;;;9.40;3.10;;;;;28.82;96819.60;;;;110690;1250;41264;-68
2022/08/14 06:23:51;;;;;;;8.80;3.40;;;;;28.80;96825.40;;;;110673;1250;41251;-68
2022/08/14 06:26:19;;;;;;;7.30;3.10;;;;;29.00;96829.40;;;;110699;1250;41462;-68
2022/08/14 06:28:50;;;;;;;7.60;3.40;;;;;29.20;96831.80;;;;110700;1249;42082;-68
2022/08/14 06:31:21;;;;;;;8.20;3.30;;;;;29.50;96825.80;;;;110659;1250;41134;-68
2022/08/14 06:33:50;;;;;;;7.50;3.40;;;;;29.90;96826.00;;;;110655;1250;41152;-68
2022/08/14 06:36:39;;;;;;;8.20;2.90;;;;;30.04;96823.80;;;;110696;1250;41239;-67
2022/08/14 06:39:08;;;;;;;6.80;2.90;;;;;30.10;96827.20;;;;110632;1250;42391;-68
2022/08/14 06:41:39;;;;;;;9.80;3.10;;;;;30.40;96823.00;;;;110637;1249;41251;-67
2022/08/14 06:44:27;;;;;;;7.90;3.40;;;;;30.62;96817.80;;;;110657;1249;41319;-67
2022/08/14 06:46:58;;;;;;;9.20;3.60;;;;;30.90;96815.20;;;;110669;1249;41150;-68
2022/08/14 06:49:26;;;;;;;7.20;3.00;;;;;31.22;96815.20;;;;110697;1249;41202;-68
2022/08/14 06:51:57;;;;;;;7.40;3.20;;;;;31.46;96806.40;;;;110732;1249;41152;-67
2022/08/14 06:54:26;;;;;;;8.20;3.30;;;;;31.78;96809.20;;;;110846;1247;41154;-68
2022/08/14 06:56:58;;;;;;;8.90;3.90;;;;;32.20;96807.80;;;;110983;1248;41124;-68
2022/08/14 06:59:27;;;;;;;9.00;3.70;;;;;32.44;96801.80;;;;110877;1249;41164;-68
2022/08/14 07:07:41;;;;;;;8.00;3.10;;;;;33.08;96800.00;;;;110800;1250;41139;-67
2022/08/14 07:10:10;;;;;;;8.30;3.30;;;;;33.64;96791.40;;;;110723;1248;41728;-68
2022/08/14 07:12:40;;;;;;;7.40;3.40;;;;;33.48;96789.80;;;;110950;1247;41257;-68
2022/08/14 07:15:30;;;;;;;6.70;2.90;;;;;34.18;96786.00;;;;110727;1250;41425;-67
2022/08/14 07:18:02;;;;;;;8.90;2.90;;;;;35.00;96786.60;;;;110687;1249;41504;-67
2022/08/14 07:20:32;;;;;;;8.00;2.90;;;;;35.60;96784.00;;;;110925;1249;41158;-66
2022/08/14 07:23:02;;;;;;;8.10;3.40;;;;;36.16;96779.20;;;;111087;1248;41766;-67
2022/08/14 07:25:37;;;;;;;8.50;3.10;;;;;36.88;96779.80;;;;110698;1249;42390;-68
2022/08/14 07:28:17;;;;;;;6.90;2.70;;;;;37.30;96779.80;;;;110688;1249;42604;-68
2022/08/14 07:30:56;;;;;;;7.30;2.90;;;;;37.80;96782.00;;;;110726;1250;41131;-68
2022/08/14 07:33:45;;;;;;;8.30;3.10;;;;;38.20;96774.00;;;;110801;1249;42015;-68
2022/08/14 07:36:19;;;;;;;8.10;3.00;;;;;38.20;96778.00;;;;111029;1248;41164;-67
2022/08/14 07:38:55;;;;;;;7.70;3.00;;;;;38.20;96775.00;;;;110856;1249;41149;-68
2022/08/14 07:41:25;;;;;;;7.80;2.90;;;;;38.12;96772.80;;;;110768;1250;41297;-68
2022/08/14 07:44:01;;;;;;;10.10;3.60;;;;;38.22;96772.20;;;;110668;1248;41253;-67
2022/08/14 07:46:50;;;;;;;7.00;3.10;;;;;37.86;96771.00;;;;110680;1250;41899;-68
2022/08/14 07:49:20;;;;;;;9.20;3.30;;;;;37.40;96775.20;;;;110755;1250;41432;-67
2022/08/14 07:51:48;;;;;;;9.30;3.30;;;;;37.36;96774.60;;;;110639;1249;42179;-68
2022/08/14 07:54:18;;;;;;;8.30;3.30;;;;;37.32;96780.40;;;;110689;1249;41149;-68
2022/08/14 07:56:50;;;;;;;7.40;2.90;;;;;37.18;96786.00;;;;110717;1250;42409;-68
2022/08/14 07:59:23;;;;;;;6.90;2.80;;;;;36.92;96794.40;;;;110863;1248;41495;-68
2022/08/14 08:02:14;;;;;;;8.10;3.30;;;;;36.78;96792.60;;;;110647;1249;41598;-68
2022/08/14 08:04:49;;;;;;;8.40;3.40;;;;;36.70;96791.40;;;;110927;1248;41300;-68
2022/08/14 08:07:24;;;;;;;7.50;3.30;;;;;36.80;96792.80;;;;111025;1247;41539;-68
2022/08/14 08:09:58;;;;;;;7.30;2.90;;;;;37.20;96782.60;;;;110998;1248;41139;-68
2022/08/14 08:12:30;;;;;;;8.50;3.50;;;;;37.50;96780.20;;;;111073;1247;41155;-69
2022/08/14 08:14:59;;;;;;;7.70;3.10;;;;;37.44;96782.60;;;;111076;1248;42433;-69
2022/08/14 08:17:30;;;;;;;6.50;2.70;;;;;37.20;96778.60;;;;111135;1248;41150;-67
2022/08/14 08:20:02;;;;;;;7.80;3.20;;;;;37.30;96775.40;;;;111056;1248;41729;-67
2022/08/14 08:22:30;;;;;;;7.40;2.80;;;;;37.38;96775.60;;;;110955;1248;41151;-67
2022/08/14 08:24:59;;;;;;;10.20;2.90;;;;;37.10;96773.80;;;;110934;1248;41196;-67
2022/08/14 08:27:28;;;;;;;12.20;3.50;;;;;37.04;96774.40;;;;111015;1248;42424;-67
2022/08/14 08:30:08;;;;;;;7.60;3.20;;;;;37.00;96768.60;;;;110896;1248;42583;-68
2022/08/14 08:32:40;;;;;;;9.50;3.20;;;;;37.10;96758.80;;;;111049;1248;41582;-68
2022/08/14 08:35:16;;;;;;;7.80;3.20;;;;;37.30;96758.80;;;;111018;1247;41258;-68
2022/08/14 08:37:44;;;;;;;8.60;3.00;;;;;37.40;96765.20;;;;111040;1248;41405;-69
2022/08/14 08:40:29;;;;;;;7.70;3.00;;;;;37.30;96763.00;;;;111054;1248;41935;-69
2022/08/14 08:42:59;;;;;;;7.20;3.00;;;;;37.02;96763.40;;;;111081;1248;41152;-68
2022/08/14 08:45:28;;;;;;;6.80;2.80;;;;;37.10;96763.20;;;;111013;1248;41264;-68
2022/08/14 08:47:56;;;;;;;7.80;2.80;;;;;37.50;96755.40;;;;110969;1249;41402;-67
2022/08/14 08:50:29;;;;;;;7.10;3.10;;;;;37.70;96756.60;;;;110643;1251;41187;-68
2022/08/14 08:53:06;;;;;;;8.70;3.20;;;;;37.90;96752.40;;;;110690;1250;42008;-70
2022/08/14 08:55:39;;;;;;;9.20;3.70;;;;;37.94;96746.80;;;;110641;1249;41611;-67
2022/08/14 08:58:13;;;;;;;7.70;3.10;;;;;37.80;96745.60;;;;110791;1247;41152;-69
2022/08/14 09:00:53;;;;;;;9.20;3.40;;;;;38.18;96746.60;;;;110997;1248;41275;-68
2022/08/14 09:03:26;;;;;;;7.40;3.30;;;;;38.62;96746.80;;;;111036;1247;42516;-68
2022/08/14 09:05:57;;;;;;;8.20;3.30;;;;;38.30;96749.40;;;;111010;1247;41487;-68
2022/08/14 09:08:29;;;;;;;8.30;3.10;;;;;37.96;96748.60;;;;110912;1249;41133;-69
2022/08/14 09:11:03;;;;;;;7.00;2.90;;;;;37.54;96745.00;;;;110617;1249;41994;-69
2022/08/14 09:13:52;;;;;;;7.80;3.00;;;;;37.10;96743.40;;;;110638;1249;41191;-69
2022/08/14 09:16:22;;;;;;;8.10;3.00;;;;;36.74;96746.60;;;;110647;1249;41155;-69
2022/08/14 09:18:53;;;;;;;8.20;2.90;;;;;36.36;96742.20;;;;110694;1249;41835;-69
2022/08/14 09:21:22;;;;;;;8.10;3.10;;;;;36.00;96744.20;;;;110635;1250;41259;-69
2022/08/14 09:23:53;;;;;;;7.50;2.90;;;;;35.70;96742.20;;;;110742;1248;41519;-68
2022/08/14 09:26:44;;;;;;;9.50;3.30;;;;;35.60;96741.00;;;;110665;1249;41556;-68
2022/08/14 09:29:17;;;;;;;7.30;3.00;;;;;35.72;96731.40;;;;110641;1250;41698;-67
2022/08/14 09:31:50;;;;;;;10.10;3.30;;;;;36.22;96727.00;;;;110680;1249;41147;-67
2022/08/14 09:34:46;;;;;;;7.10;3.40;;;;;37.06;96720.80;;;;110624;1250;41776;-68
2022/08/14 09:38:04;;;;;;;9.30;3.30;;;;;38.08;96716.20;;;;110703;1248;41581;-69
2022/08/14 09:40:54;;;;;;;8.20;3.10;;;;;38.60;96716.20;;;;110799;1249;41243;-69
2022/08/14 09:43:32;;;;;;;6.10;2.80;;;;;38.80;96718.00;;;;110805;1249;41135;-70
2022/08/14 09:46:06;;;;;;;6.90;2.80;;;;;38.76;96720.40;;;;110711;1249;41457;-68
2022/08/14 09:48:36;;;;;;;7.00;3.00;;;;;38.26;96703.40;;;;110739;1250;41748;-69
2022/08/14 09:51:06;;;;;;;8.40;3.40;;;;;37.72;96699.00;;;;110659;1250;41160;-69
2022/08/14 09:53:41;;;;;;;9.40;3.70;;;;;37.64;96701.80;;;;110615;1250;41139;-69
2022/08/14 09:56:42;;;;;;;7.40;2.90;;;;;37.30;96695.20;;;;110943;1249;41164;-68
2022/08/14 09:59:13;;;;;;;8.90;3.20;;;;;37.20;96697.20;;;;110882;1248;41473;-68
2022/08/14 10:01:44;;;;;;;8.40;3.40;;;;;36.88;96694.40;;;;111043;1247;41958;-69
2022/08/14 10:04:19;;;;;;;7.30;3.30;;;;;36.74;96695.00;;;;110911;1249;41444;-68
2022/08/14 10:07:04;;;;;;;8.30;3.60;;;;;36.02;96690.00;;;;111007;1249;41862;-68
2022/08/14 10:09:33;;;;;;;8.70;3.40;;;;;36.00;96685.20;;;;111018;1249;41489;-68
2022/08/14 10:12:05;;;;;;;10.80;3.60;;;;;36.20;96685.00;;;;111008;1248;41276;-68
2022/08/14 10:14:46;;;;;;;7.90;3.10;;;;;36.68;96681.60;;;;111063;1248;41153;-69
2022/08/14 10:17:25;;;;;;;8.50;3.00;;;;;37.24;96675.40;;;;111006;1249;42476;-69
2022/08/14 10:19:54;;;;;;;8.90;3.40;;;;;38.02;96670.60;;;;110615;1249;41241;-68
2022/08/14 10:22:29;;;;;;;7.10;3.00;;;;;38.54;96665.60;;;;110634;1249;41130;-69
2022/08/14 10:25:18;;;;;;;9.20;3.40;;;;;39.30;96661.80;;;;110840;1249;41724;-69
2022/08/14 10:27:56;;;;;;;11.00;3.40;;;;;39.90;96655.80;;;;110699;1249;41615;-68
2022/08/14 10:30:33;;;;;;;8.20;3.10;;;;;40.10;96655.20;;;;110668;1249;42262;-68
2022/08/14 10:33:02;;;;;;;8.10;3.50;;;;;40.54;96650.80;;;;110857;1247;42217;-69
2022/08/14 10:35:42;;;;;;;11.30;3.10;;;;;40.60;96649.20;;;;111002;1249;41123;-68
2022/08/14 10:38:26;;;;;;;6.80;3.00;;;;;40.76;96647.00;;;;110664;1249;41152;-68
2022/08/14 10:40:56;;;;;;;7.20;3.20;;;;;40.80;96647.20;;;;110699;1249;41612;-69
2022/08/14 10:43:26;;;;;;;7.20;2.80;;;;;40.88;96642.60;;;;110798;1248;41133;-69
2022/08/14 10:46:00;;;;;;;7.00;3.10;;;;;41.10;96641.60;;;;110841;1249;41252;-67
2022/08/14 10:49:19;;;;;;;8.70;2.80;;;;;41.40;96637.40;;;;110964;1250;41152;-69
2022/08/14 10:52:07;;;;;;;6.40;2.70;;;;;41.50;96642.00;;;;110775;1250;41221;-68
2022/08/14 10:54:43;;;;;;;7.50;3.40;;;;;41.70;96641.60;;;;110783;1250;41940;-68
2022/08/14 10:57:29;;;;;;;8.00;2.90;;;;;41.68;96639.20;;;;110675;1249;41155;-68
2022/08/14 10:59:59;;;;;;;7.00;3.20;;;;;41.50;96633.60;;;;110671;1249;41256;-69
2022/08/14 11:02:29;;;;;;;8.20;2.90;;;;;41.32;96628.60;;;;110652;1250;41522;-69
2022/08/14 11:05:14;;;;;;;8.80;3.20;;;;;41.08;96627.00;;;;110624;1250;41632;-70
2022/08/14 11:07:55;;;;;;;7.60;2.70;;;;;40.30;96629.40;;;;110637;1250;41130;-70
2022/08/14 11:10:46;;;;;;;7.40;2.80;;;;;40.36;96619.40;;;;110700;1250;42181;-70
2022/08/14 11:13:17;;;;;;;7.60;3.10;;;;;40.50;96615.60;;;;110963;1249;41143;-69
2022/08/14 11:15:50;;;;;;;6.40;2.40;;;;;40.98;96611.20;;;;110858;1249;41145;-69
2022/08/14 11:18:18;;;;;;;7.60;3.00;;;;;41.30;96610.00;;;;110879;1249;41248;-70
2022/08/14 11:20:59;;;;;;;6.50;2.80;;;;;41.96;96599.80;;;;110732;1250;41190;-69
2022/08/14 11:23:31;;;;;;;9.20;3.90;;;;;42.38;96593.00;;;;111019;1250;41929;-70
2022/08/14 11:26:06;;;;;;;7.60;3.30;;;;;42.82;96583.80;;;;110748;1249;41599;-70
2022/08/14 11:28:40;;;;;;;9.10;3.50;;;;;41.98;96585.20;;;;110980;1249;41144;-68
2022/08/14 11:31:25;;;;;;;9.80;3.90;;;;;41.64;96584.80;;;;111352;1249;41154;-70
2022/08/14 11:33:56;;;;;;;8.70;2.80;;;;;42.02;96587.60;;;;110692;1249;41135;-69
2022/08/14 11:36:28;;;;;;;8.50;3.50;;;;;42.50;96586.40;;;;111274;1247;42686;-69
2022/08/14 11:39:21;;;;;;;7.80;3.00;;;;;43.32;96580.80;;;;111036;1247;41241;-69
2022/08/14 11:42:06;;;;;;;6.80;2.60;;;;;42.50;96580.60;;;;110938;1249;41507;-68
2022/08/14 11:45:02;;;;;;;6.50;2.80;;;;;43.24;96575.80;;;;110949;1248;41261;-70
2022/08/14 11:47:32;;;;;;;8.00;2.70;;;;;43.00;96576.20;;;;110975;1250;42632;-69
2022/08/14 11:50:17;;;;;;;7.60;2.90;;;;;43.08;96572.20;;;;110936;1247;41138;-70
2022/08/14 11:53:01;;;;;;;8.90;3.10;;;;;43.10;96565.00;;;;110850;1248;41130;-69
2022/08/14 11:55:36;;;;;;;8.10;3.10;;;;;42.44;96569.20;;;;110668;1249;41891;-70
2022/08/14 11:58:09;;;;;;;6.60;3.10;;;;;42.10;96569.40;;;;110671;1249;41271;-70
2022/08/14 12:00:46;;;;;;;7.80;2.90;;;;;41.48;96576.60;;;;110656;1249;43204;-70
2022/08/14 12:03:15;;;;;;;7.90;3.00;;;;;40.72;96581.60;;;;111069;1248;41151;-69
2022/08/14 12:06:04;;;;;;;8.50;2.90;;;;;40.08;96582.00;;;;110954;1249;41015;-70
2022/08/14 12:08:34;;;;;;;7.40;2.70;;;;;39.44;96580.20;;;;110981;1249;41766;-70
2022/08/14 12:11:07;;;;;;;7.80;2.90;;;;;39.00;96581.40;;;;110761;1250;42644;-70
2022/08/14 12:13:36;;;;;;;9.80;3.40;;;;;38.70;96587.00;;;;111067;1249;41712;-71
2022/08/14 12:16:07;;;;;;;8.10;3.20;;;;;38.28;96590.60;;;;110916;1249;42126;-69
2022/08/14 12:18:44;;;;;;;8.70;3.40;;;;;37.78;96598.40;;;;110827;1249;41149;-69
2022/08/14 12:21:22;;;;;;;8.90;3.40;;;;;37.20;96598.00;;;;110593;1251;41664;-69
2022/08/14 12:24:01;;;;;;;7.10;2.70;;;;;36.66;96599.20;;;;110956;1249;41248;-70
2022/08/14 12:26:31;;;;;;;7.80;3.10;;;;;36.20;96594.40;;;;110813;1250;41269;-71
2022/08/14 12:29:14;;;;;;;8.60;3.10;;;;;36.10;96591.20;;;;110974;1249;41142;-70
2022/08/14 12:31:45;;;;;;;10.40;3.60;;;;;35.78;96591.20;;;;110836;1248;41942;-70
2022/08/14 12:34:19;;;;;;;7.20;3.10;;;;;35.60;96588.60;;;;110642;1250;41162;-70
2022/08/14 12:37:04;;;;;;;7.00;3.40;;;;;35.40;96586.00;;;;110723;1249;41253;-70
2022/08/14 12:39:34;;;;;;;9.30;3.20;;;;;35.30;96588.40;;;;110684;1249;42357;-71
2022/08/14 12:42:07;;;;;;;8.70;3.40;;;;;35.16;96581.40;;;;111035;1247;41947;-71
2022/08/14 12:44:37;;;;;;;8.50;3.20;;;;;35.00;96576.60;;;;111079;1247;42291;-68
2022/08/14 12:47:15;;;;;;;6.70;2.60;;;;;35.00;96566.80;;;;110663;1250;41162;-70
2022/08/14 12:49:51;;;;;;;10.60;3.30;;;;;35.00;96558.00;;;;110892;1249;41135;-69
2022/08/14 12:52:34;;;;;;;8.40;3.00;;;;;34.90;96560.40;;;;111062;1249;41146;-70
2022/08/14 12:55:17;;;;;;;8.30;3.00;;;;;34.90;96560.40;;;;110879;1247;42102;-70
2022/08/14 12:57:47;;;;;;;7.80;3.00;;;;;34.90;96554.00;;;;110753;1249;41897;-71
2022/08/14 13:00:21;;;;;;;7.00;3.00;;;;;34.82;96548.60;;;;110743;1249;41309;-70
2022/08/14 13:02:53;;;;;;;8.30;3.10;;;;;34.90;96544.40;;;;110690;1250;41170;-70
2022/08/14 13:05:30;;;;;;;8.40;3.20;;;;;34.60;96540.40;;;;111057;1248;41266;-70
2022/08/14 13:08:04;;;;;;;7.20;2.70;;;;;34.48;96543.60;;;;110917;1247;41458;-69
2022/08/14 13:10:33;;;;;;;9.30;3.00;;;;;34.50;96553.40;;;;111175;1249;41155;-70
2022/08/14 13:13:16;;;;;;;8.00;3.00;;;;;34.60;96560.40;;;;111028;1248;41534;-69
2022/08/14 13:15:51;;;;;;;6.70;2.70;;;;;34.60;96573.60;;;;111061;1249;41152;-70